Etusivu
METAR-TAF:

METAR-TAF

Lentoasemat :

Maarianhamina, Suomi

Maarianhaminan lentoasema

Leveyspiiri: 60-07N, Pituuspiiri: 019-54E, korkeus merenpinnasta: 6 m

Tämänhetkinen sää

Tämä raportti tehtiin 34 minuuttia sitten, kello 23.50 UTC
tyyntä
Lämpötila 5°C
Kosteus 93%
Ilmanpaine 1012 hPa
Näkyvyys 10 km tai enemmän
ei pilviä alle 1500 m:ssä eikä cumulonimbus-pilviä

METAR: EFMA 282350Z AUTO 00000KT CAVOK 05/04 Q1012

Aika: 03:24 (00:24 UTC)

Sääennuste

Tämä raportti tehtiin 58 minuuttia sitten, kello 23.26 UTC
Ennuste voimassa 29. päivästä klo 00 UTC - 29. päivään klo 09 UTC
Tuuli 3 kn pohjoisesta
Näkyvyys 10 km tai enemmän
ei pilviä alle 1500 m:ssä eikä cumulonimbus-pilviä
Tulossa
29. päivästä klo 04 UTC - 29. päivään klo 06 UTC
Tuuli 10 kn idästä/koillisesta

TAF: EFMA 282326Z 2900/2909 35003KT CAVOK BECMG 2904/2906 06010KT

Säähavainnot ja -ennusteet yli 4000 lentoasemalta (METAR- ja TAF-raportit).

Käytössä olevat sääasemat on merkitty karttaan keltaisilla ja punaisilla pisteillä.

Aseta hiiri pisteen päälle nähdäksesi sääaseman nimen.

Klikkaa sitten nähdäksesi säähavainnot ja -ennusteet.

Kartan vaihtaminen: klikkaa mustalla rastilla varustettuja vihreitä pisteitä, niin voit zoomata sisään; viivalla varustettua vihreää pistettä, niin voit zoomata ulos tai vihreitä nuolia, niin pääset viereisille kartoille.


METAR-TAF: